createdAt,value
2017-11-05T00:02:04.403Z,46.83
2017-11-05T00:04:31.024Z,43.07
2017-11-05T00:06:57.675Z,36.90
2017-11-05T00:09:24.292Z,41.30
2017-11-05T00:11:50.913Z,43.00
2017-11-05T00:14:17.537Z,43.83
2017-11-05T00:16:44.185Z,37.50
2017-11-05T00:19:10.818Z,39.17
2017-11-05T00:21:37.476Z,42.77
2017-11-05T00:24:04.091Z,41.30
2017-11-05T00:26:30.711Z,35.50
2017-11-05T00:28:57.321Z,45.13
2017-11-05T00:31:23.999Z,39.00
2017-11-05T00:33:52.178Z,47.67
2017-11-05T00:36:18.797Z,50.50
2017-11-05T00:38:45.411Z,41.97
2017-11-05T00:41:12.022Z,42.03
2017-11-05T00:43:38.646Z,54.70
2017-11-05T00:46:05.275Z,43.70
2017-11-05T00:48:31.913Z,61.50
2017-11-05T00:50:59.505Z,46.77
2017-11-05T00:53:26.137Z,61.13
2017-11-05T00:55:52.753Z,52.47
2017-11-05T00:58:19.382Z,65.97
2017-11-05T01:00:46.006Z,54.90
2017-11-05T01:03:12.609Z,63.83
2017-11-05T01:05:39.246Z,48.40
2017-11-05T01:08:06.541Z,47.50
2017-11-05T01:10:33.165Z,56.10
2017-11-05T01:12:59.787Z,50.43
2017-11-05T01:15:26.390Z,66.40
2017-11-05T01:17:53.017Z,49.00
2017-11-05T01:20:19.625Z,51.63
2017-11-05T01:22:46.280Z,42.57
2017-11-05T01:25:12.944Z,50.47
2017-11-05T01:27:39.862Z,45.50
2017-11-05T01:30:06.481Z,51.30
2017-11-05T01:32:33.094Z,43.00
2017-11-05T01:34:59.721Z,38.47
2017-11-05T01:37:26.321Z,41.17
2017-11-05T01:39:52.960Z,48.10
2017-11-05T01:42:19.603Z,43.17
2017-11-05T01:44:46.697Z,56.90
2017-11-05T01:47:13.323Z,55.23
2017-11-05T01:49:39.969Z,70.90
2017-11-05T01:52:06.597Z,64.47
2017-11-05T01:54:33.238Z,64.97
2017-11-05T01:56:59.866Z,55.40
2017-11-05T01:59:26.470Z,60.97
2017-11-05T02:01:53.084Z,83.67
2017-11-05T02:04:19.723Z,66.93
2017-11-05T02:06:46.393Z,64.27
2017-11-05T02:09:13.001Z,84.40
2017-11-05T02:11:39.627Z,69.80
2017-11-05T02:14:06.258Z,49.33
2017-11-05T02:16:32.866Z,57.83
2017-11-05T02:18:59.496Z,61.37
2017-11-05T02:21:26.100Z,76.50
2017-11-05T02:23:52.732Z,60.17
2017-11-05T02:26:19.344Z,56.20
2017-11-05T02:28:45.974Z,62.37
2017-11-05T02:31:12.604Z,69.43
2017-11-05T02:33:39.226Z,61.40
2017-11-05T02:36:05.893Z,58.60
2017-11-05T02:38:32.498Z,54.20
2017-11-05T02:40:59.130Z,52.83
2017-11-05T02:43:25.742Z,58.80
2017-11-05T02:45:52.361Z,55.13
2017-11-05T02:48:19.009Z,61.83
2017-11-05T02:50:45.638Z,61.97
2017-11-05T02:53:12.248Z,64.87
2017-11-05T02:55:38.870Z,61.40
2017-11-05T02:58:05.490Z,90.30
2017-11-05T03:00:32.102Z,71.07
2017-11-05T03:02:59.380Z,55.47
2017-11-05T03:05:25.989Z,60.47
2017-11-05T03:07:52.617Z,62.23
2017-11-05T03:10:19.230Z,68.60
2017-11-05T03:12:45.869Z,74.20
2017-11-05T03:15:12.481Z,76.93
2017-11-05T03:17:39.128Z,82.57
2017-11-05T03:20:05.740Z,80.10
2017-11-05T03:22:32.345Z,72.43
2017-11-05T03:24:59.059Z,75.13
2017-11-05T03:27:25.674Z,85.37
2017-11-05T03:29:52.298Z,84.47
2017-11-05T03:32:18.894Z,81.73
2017-11-05T03:34:45.499Z,75.87
2017-11-05T03:37:12.129Z,75.60
2017-11-05T03:39:38.754Z,64.10
2017-11-05T03:42:05.409Z,83.37
2017-11-05T03:44:32.054Z,75.37
2017-11-05T03:46:58.732Z,67.37
2017-11-05T03:49:25.340Z,68.83
2017-11-05T03:51:51.980Z,72.13
2017-11-05T03:54:18.582Z,70.43
2017-11-05T03:56:45.217Z,75.67
2017-11-05T03:59:11.862Z,69.80
2017-11-05T04:01:38.538Z,74.73
2017-11-05T04:04:05.191Z,74.90
2017-11-05T04:06:31.791Z,63.00
2017-11-05T04:08:58.424Z,63.40
2017-11-05T04:11:25.016Z,69.60
2017-11-05T04:13:51.635Z,76.90
2017-11-05T04:16:18.315Z,68.83
2017-11-05T04:18:44.944Z,68.33
2017-11-05T04:21:11.550Z,69.60
2017-11-05T04:23:38.152Z,78.40
2017-11-05T04:26:04.776Z,66.90
2017-11-05T04:28:31.400Z,49.53
2017-11-05T04:30:58.017Z,45.20
2017-11-05T04:33:25.581Z,39.87
2017-11-05T04:35:52.211Z,32.80
2017-11-05T04:38:18.832Z,29.63
2017-11-05T04:40:45.444Z,24.17
2017-11-05T04:43:12.069Z,23.63
2017-11-05T04:45:39.064Z,21.57
2017-11-05T04:48:05.688Z,23.37
2017-11-05T04:50:32.321Z,25.43
2017-11-05T04:52:58.970Z,27.77
2017-11-05T04:55:25.586Z,38.70
2017-11-05T04:57:52.207Z,59.53
2017-11-05T05:00:18.832Z,60.17
2017-11-05T05:02:45.471Z,75.93
2017-11-05T05:05:12.085Z,55.80
2017-11-05T05:07:38.806Z,49.70
2017-11-05T05:10:06.079Z,47.03
2017-11-05T05:12:32.700Z,50.70
2017-11-05T05:14:59.336Z,53.13
2017-11-05T05:17:26.753Z,42.63
2017-11-05T05:19:53.364Z,42.63
2017-11-05T05:22:20.002Z,35.07
2017-11-05T05:24:47.535Z,42.83
2017-11-05T05:27:14.203Z,40.30
2017-11-05T05:29:40.815Z,42.43
2017-11-05T05:32:07.437Z,40.97
2017-11-05T05:34:34.077Z,34.30
2017-11-05T05:37:00.682Z,45.13
2017-11-05T05:39:27.317Z,47.90
2017-11-05T05:41:54.658Z,52.23
2017-11-05T05:44:21.286Z,59.13
2017-11-05T05:46:47.890Z,46.97
2017-11-05T05:49:15.172Z,47.80
2017-11-05T05:51:41.780Z,34.10
2017-11-05T05:54:08.396Z,34.73
2017-11-05T05:56:35.035Z,37.80
2017-11-05T05:59:01.672Z,24.30
2017-11-05T06:01:28.288Z,18.73
2017-11-05T06:03:55.853Z,23.97
2017-11-05T06:06:22.464Z,30.27
2017-11-05T06:08:49.102Z,28.47
2017-11-05T06:11:15.722Z,44.27
2017-11-05T06:13:42.422Z,33.60
2017-11-05T06:16:09.213Z,32.83
2017-11-05T06:18:35.842Z,32.60
2017-11-05T06:21:02.457Z,34.53
2017-11-05T06:23:30.048Z,32.40
2017-11-05T06:25:56.670Z,38.50
2017-11-05T06:28:23.293Z,32.00
2017-11-05T06:30:49.898Z,33.83
2017-11-05T06:33:16.524Z,36.00
2017-11-05T06:35:43.264Z,42.47
2017-11-05T06:38:09.884Z,38.40
2017-11-05T06:40:36.498Z,27.63
2017-11-05T06:43:03.117Z,33.70
2017-11-05T06:45:29.852Z,33.17
2017-11-05T06:47:56.464Z,35.33
2017-11-05T06:50:23.073Z,30.20
2017-11-05T06:52:49.698Z,36.00
2017-11-05T06:55:16.317Z,44.97
2017-11-05T06:57:42.927Z,43.63
2017-11-05T07:00:09.568Z,62.33
2017-11-05T07:02:36.186Z,61.17
2017-11-05T07:05:02.798Z,55.13
2017-11-05T07:07:29.917Z,27.40
2017-11-05T07:09:56.521Z,10.20
2017-11-05T07:12:23.126Z,10.37
2017-11-05T07:14:49.765Z,6.00
2017-11-05T07:17:16.376Z,11.73
2017-11-05T07:19:43.860Z,6.13
2017-11-05T07:22:10.453Z,6.10
2017-11-05T07:24:37.076Z,7.50
2017-11-05T07:27:03.688Z,6.80
2017-11-05T07:29:30.292Z,7.27
2017-11-05T07:31:56.891Z,6.10
2017-11-05T07:34:23.504Z,8.43
2017-11-05T07:36:50.113Z,6.63
2017-11-05T07:39:16.714Z,6.17
2017-11-05T07:41:43.950Z,7.50
2017-11-05T07:44:10.577Z,6.93
2017-11-05T07:46:37.189Z,8.90
2017-11-05T07:49:03.798Z,5.87
2017-11-05T07:51:31.494Z,8.70
2017-11-05T07:53:58.098Z,5.93
2017-11-05T07:56:24.845Z,5.50
2017-11-05T07:58:51.438Z,8.73
2017-11-05T08:01:18.052Z,15.90
2017-11-05T08:03:44.733Z,14.93
2017-11-05T08:06:11.358Z,9.50
2017-11-05T08:08:37.989Z,14.73
2017-11-05T08:11:04.619Z,11.37
2017-11-05T08:13:31.259Z,8.80
2017-11-05T08:15:58.057Z,8.63
2017-11-05T08:18:24.658Z,29.33
2017-11-05T08:20:51.285Z,16.20
2017-11-05T08:23:17.921Z,11.27
2017-11-05T08:25:44.572Z,13.73
2017-11-05T08:28:11.192Z,22.43
2017-11-05T08:30:37.827Z,21.60
2017-11-05T08:33:04.511Z,10.13
2017-11-05T08:35:31.154Z,13.30
2017-11-05T08:37:57.772Z,10.67
2017-11-05T08:40:24.387Z,23.10
2017-11-05T08:42:51.026Z,24.53
2017-11-05T08:45:17.642Z,22.33
2017-11-05T08:47:44.283Z,9.93
2017-11-05T08:50:11.518Z,11.93
2017-11-05T08:52:38.141Z,8.73
2017-11-05T08:55:04.775Z,6.40
2017-11-05T08:57:31.396Z,10.73
2017-11-05T08:59:58.005Z,5.13
2017-11-05T09:02:24.650Z,15.27
2017-11-05T09:04:51.266Z,6.57
2017-11-05T09:07:17.878Z,12.73
2017-11-05T09:09:44.515Z,5.27
2017-11-05T09:12:11.134Z,5.17
2017-11-05T09:14:37.768Z,5.00
2017-11-05T09:17:04.372Z,7.13
2017-11-05T09:19:30.969Z,7.40
2017-11-05T09:21:57.592Z,7.10
2017-11-05T09:24:25.123Z,7.90
2017-11-05T09:26:51.746Z,6.37
2017-11-05T09:29:18.353Z,7.30
2017-11-05T09:31:44.986Z,10.30
2017-11-05T09:34:11.890Z,8.70
2017-11-05T09:36:38.510Z,8.50
2017-11-05T09:39:05.118Z,8.00
2017-11-05T09:41:31.724Z,5.57
2017-11-05T09:43:58.347Z,7.00
2017-11-05T09:46:24.976Z,6.77
2017-11-05T09:48:51.591Z,5.97
2017-11-05T09:51:18.193Z,11.70
2017-11-05T09:53:44.818Z,7.90
2017-11-05T09:56:11.428Z,8.63
2017-11-05T09:58:38.040Z,6.97
2017-11-05T10:01:05.068Z,11.03
2017-11-05T10:03:31.682Z,18.87
2017-11-05T10:05:58.324Z,11.70
2017-11-05T10:08:24.971Z,9.47
2017-11-05T10:10:51.592Z,9.60
2017-11-05T10:13:18.206Z,9.40
2017-11-05T10:15:44.876Z,13.13
2017-11-05T10:18:11.500Z,11.60
2017-11-05T10:20:38.108Z,9.63
2017-11-05T10:23:04.731Z,13.00
2017-11-05T10:25:31.327Z,9.13
2017-11-05T10:27:57.949Z,7.47
2017-11-05T10:30:24.589Z,8.97
2017-11-05T10:32:51.192Z,9.03
2017-11-05T10:35:17.824Z,8.23
2017-11-05T10:37:44.443Z,9.17
2017-11-05T10:40:11.038Z,10.53
2017-11-05T10:42:37.657Z,7.80
2017-11-05T10:45:04.310Z,8.47
2017-11-05T10:47:30.938Z,11.67
2017-11-05T10:49:57.601Z,8.23
2017-11-05T10:52:24.223Z,11.90
2017-11-05T10:54:50.851Z,8.93
2017-11-05T10:57:17.460Z,11.40
2017-11-05T10:59:44.098Z,11.83
2017-11-05T11:02:10.752Z,6.87
2017-11-05T11:04:37.375Z,12.30
2017-11-05T11:07:04.119Z,7.50
2017-11-05T11:09:31.601Z,6.03
2017-11-05T11:11:58.216Z,7.03
2017-11-05T11:14:25.525Z,10.80
2017-11-05T11:16:52.138Z,15.03
2017-11-05T11:19:18.755Z,8.80
2017-11-05T11:21:45.377Z,14.63
2017-11-05T11:24:12.726Z,11.57
2017-11-05T11:26:39.332Z,13.87
2017-11-05T11:29:05.938Z,13.73
2017-11-05T11:31:32.554Z,18.53
2017-11-05T11:33:59.190Z,12.53
2017-11-05T11:36:25.837Z,14.17
2017-11-05T11:38:52.497Z,18.40
2017-11-05T11:41:19.127Z,11.73
2017-11-05T11:43:45.777Z,9.90
2017-11-05T11:46:12.389Z,12.70
2017-11-05T11:48:39.045Z,13.90
2017-11-05T11:51:05.652Z,9.93
2017-11-05T11:53:32.267Z,12.30
2017-11-05T11:55:58.933Z,22.53
2017-11-05T11:58:25.567Z,17.57
2017-11-05T12:00:52.208Z,18.33
2017-11-05T12:03:18.864Z,8.17
2017-11-05T12:05:49.239Z,17.17
2017-11-05T12:08:15.864Z,11.50
2017-11-05T12:10:42.467Z,8.03
2017-11-05T12:13:09.069Z,11.23
2017-11-05T12:15:35.696Z,8.50
2017-11-05T12:18:02.346Z,14.10
2017-11-05T12:20:28.934Z,9.33
2017-11-05T12:22:56.133Z,14.80
2017-11-05T12:25:22.773Z,6.63
2017-11-05T12:27:49.413Z,11.80
2017-11-05T12:30:16.045Z,15.10
2017-11-05T12:32:42.683Z,8.80
2017-11-05T12:35:09.316Z,10.40
2017-11-05T12:37:36.019Z,11.77
2017-11-05T12:40:02.661Z,12.67
2017-11-05T12:42:29.298Z,14.63
2017-11-05T12:44:55.975Z,7.57
2017-11-05T12:47:22.583Z,5.83
2017-11-05T12:49:49.184Z,6.33
2017-11-05T12:52:15.800Z,8.20
2017-11-05T12:54:42.453Z,5.97
2017-11-05T12:57:10.030Z,8.53
2017-11-05T12:59:36.647Z,10.30
2017-11-05T13:02:03.273Z,8.03
2017-11-05T13:04:29.939Z,7.43
2017-11-05T13:06:56.537Z,10.87
2017-11-05T13:09:23.178Z,9.83
2017-11-05T13:11:49.829Z,8.93
2017-11-05T13:14:18.042Z,15.20
2017-11-05T13:16:44.705Z,6.77
2017-11-05T13:19:11.327Z,6.97
2017-11-05T13:21:37.953Z,4.90
2017-11-05T13:24:04.561Z,6.63
2017-11-05T13:26:31.180Z,11.67
2017-11-05T13:28:57.813Z,12.13
2017-11-05T13:31:24.488Z,14.20
2017-11-05T13:33:51.170Z,15.07
2017-11-05T13:36:17.811Z,17.30
2017-11-05T13:38:44.477Z,15.60
2017-11-05T13:41:11.101Z,17.53
2017-11-05T13:43:37.733Z,21.60
2017-11-05T13:46:04.346Z,23.20
2017-11-05T13:48:31.619Z,17.20
2017-11-05T13:50:58.314Z,14.30
2017-11-05T13:53:24.964Z,18.30
2017-11-05T13:55:51.592Z,18.13
2017-11-05T13:58:18.195Z,16.63
2017-11-05T14:00:44.815Z,23.70
2017-11-05T14:03:11.434Z,28.83
2017-11-05T14:05:38.062Z,12.83
2017-11-05T14:08:04.672Z,19.23
2017-11-05T14:10:31.301Z,18.47
2017-11-05T14:12:57.921Z,13.73
2017-11-05T14:15:25.361Z,15.60
2017-11-05T14:17:52.885Z,7.10
2017-11-05T14:20:19.533Z,7.50
2017-11-05T14:22:46.171Z,7.47
2017-11-05T14:25:12.771Z,7.03
2017-11-05T14:27:39.372Z,6.93
2017-11-05T14:30:05.981Z,7.03
2017-11-05T14:32:32.802Z,9.93
2017-11-05T14:34:59.488Z,9.30
2017-11-05T14:37:26.131Z,18.90
2017-11-05T14:39:52.749Z,82.47
2017-11-05T14:42:19.382Z,22.20
2017-11-05T14:44:46.050Z,10.03
2017-11-05T14:47:12.667Z,12.77
2017-11-05T14:49:39.279Z,12.60
2017-11-05T14:52:06.737Z,18.17
2017-11-05T14:54:33.381Z,15.53
2017-11-05T14:57:00.013Z,47.93
2017-11-05T14:59:26.638Z,18.87
2017-11-05T15:01:53.256Z,13.63
2017-11-05T15:04:20.501Z,14.87
2017-11-05T15:06:49.825Z,11.80
2017-11-05T15:09:17.453Z,9.40
2017-11-05T15:11:44.106Z,11.30
2017-11-05T15:14:11.481Z,14.40
2017-11-05T15:16:41.689Z,14.00
2017-11-05T15:19:10.542Z,12.23
2017-11-05T15:21:37.694Z,9.40
2017-11-05T15:24:04.357Z,8.00
2017-11-05T15:26:31.817Z,7.60
2017-11-05T15:28:58.453Z,9.30
2017-11-05T15:31:25.076Z,5.50
2017-11-05T15:33:51.695Z,9.23
2017-11-05T15:36:18.287Z,4.87
2017-11-05T15:38:44.920Z,5.40
2017-11-05T15:41:11.552Z,6.67
2017-11-05T15:43:38.183Z,5.60
2017-11-05T15:46:04.819Z,7.07
2017-11-05T15:48:31.440Z,11.87
2017-11-05T15:50:58.073Z,9.83
2017-11-05T15:53:24.822Z,8.00
2017-11-05T15:55:51.433Z,7.87
2017-11-05T15:58:18.088Z,12.17
2017-11-05T16:00:44.724Z,7.50
2017-11-05T16:03:11.325Z,10.00
2017-11-05T16:05:37.941Z,11.00
2017-11-05T16:08:04.569Z,10.67
2017-11-05T16:10:31.232Z,15.87
2017-11-05T16:12:57.853Z,7.70
2017-11-05T16:15:24.567Z,8.90
2017-11-05T16:17:51.175Z,10.47
2017-11-05T16:20:17.781Z,12.00
2017-11-05T16:22:44.414Z,13.87
2017-11-05T16:25:11.543Z,26.13
2017-11-05T16:27:38.174Z,14.03
2017-11-05T16:30:04.874Z,15.40
2017-11-05T16:32:31.545Z,15.20
2017-11-05T16:34:58.169Z,9.13
2017-11-05T16:37:24.786Z,16.87
2017-11-05T16:39:51.390Z,15.10
2017-11-05T16:42:18.043Z,23.13
2017-11-05T16:44:44.682Z,24.80
2017-11-05T16:47:11.298Z,24.30
2017-11-05T16:49:38.045Z,13.23
2017-11-05T16:52:04.665Z,13.57
2017-11-05T16:54:31.317Z,16.67
2017-11-05T16:56:57.952Z,12.40
2017-11-05T16:59:24.632Z,9.53
2017-11-05T17:01:51.226Z,11.73
2017-11-05T17:04:17.853Z,14.10
2017-11-05T17:06:44.565Z,8.80
2017-11-05T17:09:11.162Z,7.90
2017-11-05T17:11:37.769Z,7.43
2017-11-05T17:14:04.441Z,8.00
2017-11-05T17:16:31.105Z,12.63
2017-11-05T17:18:59.215Z,9.70
2017-11-05T17:21:25.870Z,8.07
2017-11-05T17:23:52.628Z,8.87
2017-11-05T17:26:19.254Z,10.97
2017-11-05T17:28:45.924Z,10.93
2017-11-05T17:31:12.567Z,20.47
2017-11-05T17:33:39.188Z,10.17
2017-11-05T17:36:05.810Z,11.20
2017-11-05T17:38:32.429Z,17.40
2017-11-05T17:40:59.162Z,23.43
2017-11-05T17:43:25.798Z,12.87
2017-11-05T17:45:52.435Z,20.57
2017-11-05T17:48:19.073Z,11.13
2017-11-05T17:50:45.688Z,10.40
2017-11-05T17:53:12.318Z,11.30
2017-11-05T17:55:38.985Z,10.27
2017-11-05T17:58:05.685Z,13.30
2017-11-05T18:00:32.323Z,12.13
2017-11-05T18:02:59.024Z,10.33
2017-11-05T18:05:25.651Z,16.40
2017-11-05T18:07:52.332Z,13.67
2017-11-05T18:10:19.024Z,9.73
2017-11-05T18:12:45.668Z,10.33
2017-11-05T18:15:12.317Z,9.00
2017-11-05T18:17:41.978Z,9.00
2017-11-05T18:20:08.622Z,8.23
2017-11-05T18:22:35.251Z,9.57
2017-11-05T18:25:01.891Z,13.73
2017-11-05T18:27:28.525Z,15.97
2017-11-05T18:29:56.282Z,38.83
2017-11-05T18:32:23.078Z,22.33
2017-11-05T18:34:49.927Z,15.10
2017-11-05T18:37:17.488Z,11.73
2017-11-05T18:39:44.150Z,11.50
2017-11-05T18:42:10.790Z,15.50
2017-11-05T18:44:37.402Z,11.13
2017-11-05T18:47:04.020Z,9.90
2017-11-05T18:49:30.636Z,8.37
2017-11-05T18:51:58.056Z,10.93
2017-11-05T18:54:24.771Z,14.83
2017-11-05T18:56:51.406Z,8.27
2017-11-05T18:59:18.054Z,8.70
2017-11-05T19:01:44.723Z,6.27
2017-11-05T19:04:11.341Z,5.33
2017-11-05T19:06:37.961Z,5.70
2017-11-05T19:09:04.603Z,7.30
2017-11-05T19:11:31.224Z,7.57
2017-11-05T19:13:57.844Z,7.37
2017-11-05T19:16:24.465Z,9.80
2017-11-05T19:18:51.074Z,16.70
2017-11-05T19:21:17.686Z,15.37
2017-11-05T19:23:44.327Z,13.73
2017-11-05T19:26:11.819Z,31.03
2017-11-05T19:28:38.502Z,22.83
2017-11-05T19:31:05.161Z,12.20
2017-11-05T19:33:31.815Z,10.20
2017-11-05T19:35:58.434Z,8.47
2017-11-05T19:38:25.088Z,8.50
2017-11-05T19:40:51.701Z,7.83
2017-11-05T19:43:18.352Z,16.07
2017-11-05T19:45:44.997Z,14.27
2017-11-05T19:48:11.701Z,7.80
2017-11-05T19:50:38.370Z,20.63
2017-11-05T19:53:05.169Z,19.47
2017-11-05T19:55:31.893Z,10.10
2017-11-05T19:57:58.514Z,16.60
2017-11-05T20:00:25.459Z,15.37
2017-11-05T20:02:52.947Z,21.27
2017-11-05T20:05:19.575Z,16.10
2017-11-05T20:07:46.217Z,16.60
2017-11-05T20:10:13.641Z,15.97
2017-11-05T20:12:40.817Z,11.37
2017-11-05T20:15:07.530Z,17.57
2017-11-05T20:17:34.287Z,13.77
2017-11-05T20:20:00.968Z,13.37
2017-11-05T20:22:27.686Z,16.17
2017-11-05T20:24:54.496Z,12.63
2017-11-05T20:27:21.145Z,18.50
2017-11-05T20:29:48.282Z,14.97
2017-11-05T20:32:14.954Z,19.23
2017-11-05T20:34:41.603Z,20.93
2017-11-05T20:37:08.264Z,20.30
2017-11-05T20:39:34.908Z,20.73
2017-11-05T20:42:01.540Z,21.40
2017-11-05T20:44:28.166Z,24.17
2017-11-05T20:46:54.860Z,19.47
2017-11-05T20:49:21.488Z,25.93
2017-11-05T20:51:48.240Z,28.67
2017-11-05T20:54:16.175Z,25.70
2017-11-05T20:56:43.026Z,22.30
2017-11-05T20:59:09.688Z,26.20
2017-11-05T21:01:36.355Z,28.33
2017-11-05T21:04:02.986Z,31.13
2017-11-05T21:06:29.617Z,54.73
2017-11-05T21:08:56.330Z,45.17
2017-11-05T21:11:23.835Z,32.40
2017-11-05T21:13:50.577Z,39.43
2017-11-05T21:16:17.264Z,41.37
2017-11-05T21:18:44.447Z,42.23
2017-11-05T21:21:11.046Z,37.67
2017-11-05T21:23:37.679Z,30.30
2017-11-05T21:26:05.141Z,23.53
2017-11-05T21:28:31.807Z,47.33
2017-11-05T21:30:58.461Z,42.90
2017-11-05T21:33:25.771Z,41.87
2017-11-05T21:35:52.772Z,38.27
2017-11-05T21:38:19.406Z,32.57
2017-11-05T21:40:46.069Z,40.00
2017-11-05T21:43:12.684Z,30.07
2017-11-05T21:45:39.312Z,30.07
2017-11-05T21:48:05.945Z,30.80
2017-11-05T21:50:32.607Z,33.70
2017-11-05T21:52:59.227Z,33.50
2017-11-05T21:55:25.872Z,40.50
2017-11-05T21:57:52.495Z,30.67
2017-11-05T22:00:19.138Z,62.00
2017-11-05T22:02:45.768Z,31.30
2017-11-05T22:05:12.375Z,31.87
2017-11-05T22:07:38.996Z,37.77
2017-11-05T22:10:05.639Z,36.87
2017-11-05T22:12:32.249Z,35.40
2017-11-05T22:14:58.899Z,31.37
2017-11-05T22:17:25.572Z,28.63
2017-11-05T22:19:52.172Z,41.57
2017-11-05T22:22:18.777Z,39.67
2017-11-05T22:24:45.427Z,48.33
2017-11-05T22:27:12.037Z,34.13
2017-11-05T22:29:38.656Z,31.50
2017-11-05T22:32:05.297Z,29.87
2017-11-05T22:34:31.892Z,24.70
2017-11-05T22:36:58.570Z,30.93
2017-11-05T22:39:25.254Z,25.50
2017-11-05T22:41:51.865Z,36.47
2017-11-05T22:44:18.505Z,35.10
2017-11-05T22:46:45.165Z,28.23
2017-11-05T22:49:11.779Z,32.70
2017-11-05T22:51:38.395Z,41.00
2017-11-05T22:54:05.010Z,43.63
2017-11-05T22:56:31.684Z,42.60
2017-11-05T22:58:58.303Z,29.77
2017-11-05T23:01:24.953Z,29.33
2017-11-05T23:03:51.544Z,39.57
2017-11-05T23:06:18.186Z,39.53
2017-11-05T23:08:44.824Z,37.83
2017-11-05T23:11:11.439Z,46.77
2017-11-05T23:13:38.071Z,52.63
2017-11-05T23:16:04.723Z,41.00
2017-11-05T23:18:31.369Z,43.93
2017-11-05T23:20:57.985Z,59.37
2017-11-05T23:23:24.623Z,41.57
2017-11-05T23:25:51.262Z,38.20
2017-11-05T23:28:17.878Z,57.07
2017-11-05T23:30:44.500Z,49.03
2017-11-05T23:33:11.181Z,55.20
2017-11-05T23:35:37.807Z,50.43
2017-11-05T23:38:04.432Z,55.43
2017-11-05T23:40:31.084Z,41.97
2017-11-05T23:42:57.690Z,56.47
2017-11-05T23:45:24.302Z,47.83
2017-11-05T23:47:50.941Z,40.40
2017-11-05T23:50:17.558Z,49.83
2017-11-05T23:52:44.188Z,58.60
2017-11-05T23:55:10.819Z,48.57
2017-11-05T23:57:37.460Z,42.80
